Time;durP1;ratioP1;P1;durP2;ratioP2;P2;SDS_P1;SDS_P2;PMS_P1;PMS_P2;Temp;Humidity;BMP_temperature;BMP_pressure;BME280_temperature;BME280_humidity;BME280_pressure;Samples;Min_cycle;Max_cycle;Signal;HPM_P1;HPM_P2
2022/01/04 00:01:41;;;;;;;38.28;5.28;;;7.60;99.90;;;;;;6126121;23;20013;-82
2022/01/04 00:04:07;;;;;;;24.15;4.13;;;8.30;99.90;;;;;;6149838;23;20439;-83
2022/01/04 00:06:33;;;;;;;35.13;5.45;;;8.00;99.90;;;;;;6124986;23;20346;-81
2022/01/04 00:09:01;;;;;;;36.60;5.65;;;7.60;99.90;;;;;;6124032;23;20010;-86
2022/01/04 00:13:21;;;;;;;40.88;5.80;;;7.90;99.90;;;;;;6150313;23;20306;-83
2022/01/04 00:14:31;;;;;;;37.85;5.13;;;7.90;99.90;;;;;;6150768;23;20021;-83
2022/01/04 00:16:56;;;;;;;35.53;5.38;;;7.50;99.90;;;;;;6125615;23;20375;-82
2022/01/04 00:19:23;;;;;;;31.77;5.82;;;7.50;99.90;;;;;;6152121;23;20112;-85
2022/01/04 00:21:48;;;;;;;25.80;4.95;;;8.30;99.90;;;;;;6127313;23;20095;-81
2022/01/04 00:24:14;;;;;;;42.17;5.82;;;7.70;99.90;;;;;;6126667;23;20455;-84
2022/01/04 00:26:40;;;;;;;32.83;5.50;;;7.40;99.90;;;;;;6151601;23;20338;-84
2022/01/04 00:29:05;;;;;;;35.63;5.03;;;7.60;99.90;;;;;;6151407;23;20179;-81
2022/01/04 00:31:31;;;;;;;35.90;5.25;;;8.30;99.90;;;;;;6152356;23;20025;-82
2022/01/04 00:33:58;;;;;;;33.17;5.60;;;8.20;99.90;;;;;;6153097;23;20382;-81
2022/01/04 00:36:25;;;;;;;37.47;5.85;;;7.30;99.90;;;;;;6152740;23;20024;-82
2022/01/04 00:38:50;;;;;;;28.08;4.95;;;7.70;99.90;;;;;;6154554;23;20009;-84
2022/01/04 00:41:16;;;;;;;33.75;5.55;;;7.30;99.90;;;;;;6154346;23;20049;-83
2022/01/04 00:43:45;;;;;;;29.88;5.15;;;7.40;99.90;;;;;;6154017;23;20025;-85
2022/01/04 00:46:16;;;;;;;35.05;6.38;;;8.20;99.90;;;;;;6127340;23;20014;-81
2022/01/04 00:51:27;;;;;;;48.47;6.97;;;7.90;99.90;;;;;;6152313;23;20044;-83
2022/01/04 00:53:52;;;;;;;38.58;6.95;;;7.30;99.90;;;;;;6128070;23;20359;-86
2022/01/04 00:56:18;;;;;;;32.30;6.43;;;7.40;99.90;;;;;;6152888;23;20096;-86
2022/01/04 00:58:44;;;;;;;35.35;6.50;;;7.40;99.90;;;;;;6154903;23;20041;-83
2022/01/04 01:01:09;;;;;;;39.17;6.80;;;7.80;99.90;;;;;;6127046;23;20021;-84
2022/01/04 01:03:35;;;;;;;27.10;6.03;;;7.40;99.90;;;;;;6127504;23;20072;-87
2022/01/04 01:06:01;;;;;;;32.60;7.03;;;7.40;99.90;;;;;;6153567;23;20310;-84
2022/01/04 01:08:26;;;;;;;34.35;7.10;;;7.70;99.90;;;;;;6127486;23;20014;-84
2022/01/04 01:10:52;;;;;;;41.03;7.55;;;8.10;99.90;;;;;;6127490;23;20016;-84
2022/01/04 01:13:18;;;;;;;44.05;7.47;;;7.60;99.90;;;;;;6152316;23;20014;-86
2022/01/04 01:15:45;;;;;;;35.05;7.70;;;7.80;99.90;;;;;;6126652;23;20911;-84
2022/01/04 01:18:13;;;;;;;35.97;7.28;;;7.50;99.90;;;;;;6131041;23;20101;-85
2022/01/04 01:20:38;;;;;;;45.25;7.53;;;7.60;99.90;;;;;;6132361;23;20083;-86
2022/01/04 01:23:04;;;;;;;39.95;7.43;;;8.40;99.90;;;;;;6131746;23;20307;-85
2022/01/04 01:25:30;;;;;;;40.40;7.20;;;7.70;99.90;;;;;;6132253;23;20024;-85
2022/01/04 01:27:56;;;;;;;34.58;6.80;;;8.00;99.90;;;;;;6156757;23;20016;-85
2022/01/04 01:30:22;;;;;;;40.95;6.93;;;7.50;99.90;;;;;;6156402;23;20073;-81
2022/01/04 01:32:49;;;;;;;43.67;7.35;;;8.00;99.90;;;;;;6131865;23;20013;-83
2022/01/04 01:35:14;;;;;;;44.05;7.50;;;8.30;99.90;;;;;;6132180;23;20009;-85
2022/01/04 01:37:40;;;;;;;39.50;7.00;;;7.50;99.90;;;;;;6156987;23;20325;-86
2022/01/04 01:40:06;;;;;;;36.50;7.22;;;8.20;99.90;;;;;;6183053;23;20024;-85
2022/01/04 01:42:32;;;;;;;39.65;7.95;;;7.60;99.90;;;;;;6132287;23;20135;-84
2022/01/04 01:44:57;;;;;;;41.33;7.30;;;7.60;99.90;;;;;;6156633;23;20096;-83
2022/01/04 01:47:23;;;;;;;48.47;7.60;;;7.60;99.90;;;;;;6156686;23;20009;-87
2022/01/04 01:49:49;;;;;;;39.17;7.07;;;8.00;99.90;;;;;;6157281;23;20048;-87
2022/01/04 01:52:16;;;;;;;31.80;6.55;;;7.70;99.90;;;;;;6183299;23;20123;-81
2022/01/04 01:54:41;;;;;;;43.20;6.55;;;7.90;99.90;;;;;;6157040;23;20092;-85
2022/01/04 01:57:07;;;;;;;43.80;7.20;;;8.40;99.90;;;;;;6157235;23;20279;-83
2022/01/04 01:59:33;;;;;;;45.30;7.15;;;8.20;99.90;;;;;;6157065;23;20421;-82
2022/01/04 02:01:58;;;;;;;37.85;6.45;;;7.90;99.90;;;;;;6131377;23;20017;-84
2022/01/04 02:04:24;;;;;;;51.47;7.20;;;8.30;99.90;;;;;;6132953;23;20016;-87
2022/01/04 02:06:50;;;;;;;37.85;5.78;;;7.60;99.90;;;;;;6133007;23;20014;-84
2022/01/04 02:09:16;;;;;;;48.53;6.68;;;7.90;99.90;;;;;;6132631;23;20016;-81
2022/01/04 02:11:42;;;;;;;40.58;6.75;;;7.60;99.90;;;;;;6157278;23;20453;-86
2022/01/04 02:14:08;;;;;;;47.00;7.10;;;7.50;99.90;;;;;;6157055;23;20021;-87
2022/01/04 02:16:34;;;;;;;32.95;5.97;;;7.70;99.90;;;;;;6155976;23;20017;-83
2022/01/04 02:19:05;;;;;;;50.60;6.80;;;8.20;99.90;;;;;;6157546;23;20031;-86
2022/01/04 02:21:32;;;;;;;35.80;6.03;;;7.50;99.90;;;;;;6157021;23;20165;-85
2022/01/04 02:23:58;;;;;;;40.83;7.05;;;7.80;99.90;;;;;;6131917;23;20017;-82
2022/01/04 02:26:24;;;;;;;35.45;6.57;;;7.50;99.90;;;;;;6131318;23;20017;-86
2022/01/04 02:28:51;;;;;;;49.40;6.85;;;7.50;99.90;;;;;;6133012;23;20104;-83
2022/01/04 02:31:17;;;;;;;42.70;7.57;;;8.30;99.90;;;;;;6130929;23;20049;-83
2022/01/04 02:33:43;;;;;;;45.58;7.07;;;7.50;99.90;;;;;;6156479;23;20460;-84
2022/01/04 02:36:08;;;;;;;54.58;6.93;;;7.80;99.90;;;;;;6132391;23;20017;-84
2022/01/04 02:38:34;;;;;;;34.85;6.72;;;8.30;99.90;;;;;;6132636;23;20032;-85
2022/01/04 02:41:01;;;;;;;47.47;7.38;;;7.50;99.90;;;;;;6131914;23;20099;-83
2022/01/04 02:43:27;;;;;;;40.38;7.47;;;7.40;99.90;;;;;;6132077;23;20017;-85
2022/01/04 02:45:52;;;;;;;34.22;6.45;;;7.50;99.90;;;;;;6131439;23;20016;-82
2022/01/04 02:48:18;;;;;;;39.20;7.35;;;7.80;99.90;;;;;;6157363;23;20029;-86
2022/01/04 02:50:44;;;;;;;46.92;7.47;;;7.60;99.90;;;;;;6156882;23;20044;-83
2022/01/04 02:53:09;;;;;;;37.67;7.85;;;7.60;99.90;;;;;;6156480;23;20027;-83
2022/01/04 02:55:35;;;;;;;35.42;6.57;;;8.50;99.90;;;;;;6131574;23;20441;-87
2022/01/04 02:58:01;;;;;;;40.58;6.70;;;7.70;99.90;;;;;;6132032;23;20009;-84
2022/01/04 03:00:28;;;;;;;38.33;6.93;;;7.70;99.90;;;;;;6156171;23;20096;-86
2022/01/04 03:02:54;;;;;;;36.08;6.50;;;7.80;99.90;;;;;;6131493;23;20045;-84
2022/01/04 03:05:20;;;;;;;39.97;6.90;;;8.50;99.90;;;;;;6132029;23;20016;-83
2022/01/04 03:07:46;;;;;;;35.97;6.53;;;7.70;99.90;;;;;;6132034;23;20023;-85
2022/01/04 03:10:12;;;;;;;42.10;6.72;;;8.20;99.90;;;;;;6132016;23;20024;-86
2022/01/04 03:12:43;;;;;;;39.85;7.18;;;7.70;99.90;;;;;;6132139;23;20017;-84
2022/01/04 03:15:09;;;;;;;48.80;7.57;;;8.60;99.90;;;;;;6156652;23;20020;-85
2022/01/04 03:17:35;;;;;;;55.88;7.53;;;7.70;99.90;;;;;;6156000;23;20035;-86
2022/01/04 03:20:01;;;;;;;49.10;7.10;;;8.40;99.90;;;;;;6131651;23;20017;-84
2022/01/04 03:22:27;;;;;;;35.63;6.60;;;8.10;99.90;;;;;;6131351;23;20084;-84
2022/01/04 03:24:52;;;;;;;42.58;7.40;;;8.50;99.90;;;;;;6131674;23;20017;-87
2022/01/04 03:27:18;;;;;;;40.72;7.47;;;8.40;99.90;;;;;;6131752;23;20009;-85
2022/01/04 03:29:44;;;;;;;40.30;7.60;;;7.70;99.90;;;;;;6132268;23;20154;-83
2022/01/04 03:32:10;;;;;;;32.88;7.47;;;7.80;99.90;;;;;;6155294;23;20492;-87
2022/01/04 03:34:36;;;;;;;37.85;7.50;;;8.50;99.90;;;;;;6131671;23;20076;-84
2022/01/04 03:37:01;;;;;;;35.42;6.70;;;7.70;99.90;;;;;;6182913;23;20028;-86
2022/01/04 03:39:27;;;;;;;46.35;8.10;;;7.70;99.90;;;;;;6156848;23;20088;-84
2022/01/04 03:41:53;;;;;;;37.25;7.05;;;7.70;99.90;;;;;;6156310;23;20013;-84
2022/01/04 03:44:20;;;;;;;38.95;7.43;;;7.80;99.90;;;;;;6131637;23;20044;-86
2022/01/04 03:46:53;;;;;;;48.05;7.47;;;8.10;99.90;;;;;;6183956;23;20013;-88
2022/01/04 03:49:19;;;;;;;36.88;6.75;;;8.70;99.90;;;;;;6158380;23;20344;-85
2022/01/04 03:51:45;;;;;;;54.80;7.50;;;8.30;99.90;;;;;;6157067;23;20445;-85
2022/01/04 03:54:11;;;;;;;46.75;7.38;;;8.20;99.90;;;;;;6184399;23;20020;-87
2022/01/04 03:56:37;;;;;;;45.40;7.75;;;8.50;99.90;;;;;;6184811;23;20090;-83
2022/01/04 03:59:04;;;;;;;46.65;7.65;;;8.00;99.90;;;;;;6158572;23;20016;-86
2022/01/04 04:01:29;;;;;;;45.28;7.35;;;8.50;99.90;;;;;;6131975;23;20151;-86
2022/01/04 04:03:55;;;;;;;44.83;7.10;;;7.70;99.90;;;;;;6132836;23;20438;-86
2022/01/04 04:06:22;;;;;;;53.00;7.82;;;8.60;99.90;;;;;;6133103;23;20438;-85
2022/01/04 04:08:47;;;;;;;41.65;7.60;;;7.70;99.90;;;;;;6134038;23;20016;-82
2022/01/04 04:11:13;;;;;;;46.78;6.85;;;7.80;99.90;;;;;;6133518;23;20020;-82
2022/01/04 04:13:39;;;;;;;34.42;6.70;;;7.80;99.90;;;;;;6133525;23;20067;-85
2022/01/04 04:16:05;;;;;;;41.83;7.45;;;8.00;99.90;;;;;;6157111;23;20085;-81
2022/01/04 04:18:31;;;;;;;37.53;6.85;;;7.80;99.90;;;;;;6133017;23;20021;-86
2022/01/04 04:20:56;;;;;;;45.22;7.93;;;7.80;99.90;;;;;;6158236;23;20009;-85
2022/01/04 04:23:23;;;;;;;38.95;7.40;;;8.20;99.90;;;;;;6157518;23;20075;-87
2022/01/04 04:25:49;;;;;;;38.50;7.60;;;7.90;99.90;;;;;;6133470;23;20476;-83
2022/01/04 04:28:15;;;;;;;38.30;7.93;;;7.80;99.90;;;;;;6157748;23;20013;-86
2022/01/04 04:30:41;;;;;;;40.17;8.18;;;7.80;99.90;;;;;;6133237;23;20017;-83
2022/01/04 04:33:06;;;;;;;44.03;8.07;;;7.70;99.90;;;;;;6133761;23;20158;-83
2022/01/04 04:35:32;;;;;;;47.42;8.48;;;8.00;99.90;;;;;;6157700;23;20361;-85
2022/01/04 04:38:00;;;;;;;38.03;8.70;;;7.80;99.90;;;;;;6133788;23;20096;-83
2022/01/04 04:40:25;;;;;;;46.42;8.75;;;7.80;99.90;;;;;;6133666;23;20100;-82
2022/01/04 04:42:51;;;;;;;45.85;9.68;;;7.80;99.90;;;;;;6133541;23;20048;-83
2022/01/04 04:45:17;;;;;;;45.10;9.27;;;7.80;99.90;;;;;;6132935;23;20044;-85
2022/01/04 04:47:43;;;;;;;48.17;9.20;;;8.30;99.90;;;;;;6157855;23;20325;-85
2022/01/04 04:50:09;;;;;;;48.72;9.23;;;8.30;99.90;;;;;;6182993;23;20009;-87
2022/01/04 04:52:35;;;;;;;47.17;9.10;;;8.00;99.90;;;;;;6183658;23;20069;-85
2022/01/04 04:55:01;;;;;;;39.88;9.88;;;7.70;99.90;;;;;;6157543;23;20409;-84
2022/01/04 04:57:26;;;;;;;46.38;8.90;;;7.80;99.90;;;;;;6132487;23;20020;-83
2022/01/04 04:59:52;;;;;;;50.33;9.88;;;8.20;99.90;;;;;;6184444;23;20016;-85
2022/01/04 05:02:17;;;;;;;54.55;9.15;;;7.80;99.90;;;;;;6156161;23;20013;-83
2022/01/04 05:04:43;;;;;;;47.63;10.07;;;8.60;99.90;;;;;;6132990;23;20021;-83
2022/01/04 05:07:09;;;;;;;46.53;9.95;;;7.80;99.90;;;;;;6157957;23;20477;-85
2022/01/04 05:09:34;;;;;;;46.35;10.95;;;8.30;99.90;;;;;;6184739;23;20051;-86
2022/01/04 05:12:01;;;;;;;45.08;9.88;;;8.40;99.90;;;;;;6157851;23;20032;-82
2022/01/04 05:14:27;;;;;;;40.08;10.35;;;7.80;99.90;;;;;;6158474;23;20020;-85
2022/01/04 05:16:53;;;;;;;47.17;11.00;;;8.30;99.90;;;;;;6157350;23;20009;-85
2022/01/04 05:19:18;;;;;;;42.30;10.55;;;7.90;99.90;;;;;;6133223;23;20025;-83
2022/01/04 05:21:44;;;;;;;44.28;11.00;;;8.30;99.90;;;;;;6132404;23;20493;-83
2022/01/04 05:24:11;;;;;;;48.28;11.60;;;8.50;99.90;;;;;;6132875;23;20099;-85
2022/01/04 05:26:37;;;;;;;48.72;10.82;;;7.70;99.90;;;;;;6132511;23;20017;-86
2022/01/04 05:29:03;;;;;;;43.25;11.35;;;8.10;99.90;;;;;;6157142;23;20100;-84
2022/01/04 05:31:29;;;;;;;57.78;11.30;;;7.80;99.90;;;;;;6132141;23;20130;-86
2022/01/04 05:33:55;;;;;;;46.15;11.55;;;7.70;99.90;;;;;;6184167;23;20080;-82
2022/01/04 05:36:21;;;;;;;40.13;9.90;;;7.70;99.90;;;;;;6156778;23;20385;-84
2022/01/04 05:38:47;;;;;;;38.30;9.90;;;7.70;99.90;;;;;;6132434;23;20017;-87
2022/01/04 05:41:14;;;;;;;31.80;11.10;;;8.60;99.90;;;;;;6132452;23;20023;-83
2022/01/04 05:43:39;;;;;;;41.25;12.23;;;8.00;99.90;;;;;;6156489;23;20021;-83
2022/01/04 05:46:05;;;;;;;51.40;12.98;;;8.50;99.90;;;;;;6156245;23;20444;-85
2022/01/04 05:48:31;;;;;;;40.70;11.50;;;7.60;99.90;;;;;;6156996;23;20013;-81
2022/01/04 05:50:57;;;;;;;47.17;11.63;;;8.40;99.90;;;;;;6132315;23;20020;-86
2022/01/04 05:53:22;;;;;;;49.53;11.50;;;7.60;99.90;;;;;;6157578;23;20393;-85
2022/01/04 05:55:51;;;;;;;51.70;12.60;;;7.60;99.90;;;;;;6132778;23;20013;-86
2022/01/04 05:58:17;;;;;;;52.38;12.50;;;7.60;99.90;;;;;;6156924;23;20346;-82
2022/01/04 06:00:43;;;;;;;51.78;12.68;;;7.70;99.90;;;;;;6132022;23;20017;-86
2022/01/04 06:03:08;;;;;;;47.00;11.80;;;7.90;99.90;;;;;;6156219;23;20013;-84
2022/01/04 06:05:34;;;;;;;51.85;12.05;;;8.40;99.90;;;;;;6132031;23;20013;-85
2022/01/04 06:08:37;;;;;;;52.30;12.52;;;7.60;99.90;;;;;;6156569;23;20020;-89
2022/01/04 06:11:03;;;;;;;32.65;7.78;;;7.50;99.90;;;;;;6038521;23;20030;-81
2022/01/04 06:16:14;;;;;;;41.78;10.25;;;8.00;99.90;;;;;;6017154;23;20126;-84
2022/01/04 06:18:42;;;;;;;55.88;11.55;;;7.80;99.90;;;;;;6038169;23;20062;-83
2022/01/04 06:21:09;;;;;;;55.50;11.43;;;7.80;99.90;;;;;;6014823;23;20534;-86
2022/01/04 06:23:34;;;;;;;45.80;9.70;;;8.20;99.90;;;;;;6015122;23;20352;-84
2022/01/04 06:26:00;;;;;;;52.15;10.13;;;8.60;99.90;;;;;;6038860;23;20014;-85
2022/01/04 06:28:26;;;;;;;49.45;10.18;;;7.90;99.90;;;;;;6039074;23;20203;-84
2022/01/04 06:30:52;;;;;;;55.22;9.10;;;8.70;99.90;;;;;;6014635;23;20424;-83
2022/01/04 06:33:23;;;;;;;49.63;9.02;;;8.60;99.90;;;;;;6015752;23;20026;-87
2022/01/04 06:35:49;;;;;;;41.40;8.65;;;8.00;99.90;;;;;;6039431;23;20046;-88
2022/01/04 06:38:16;;;;;;;45.88;9.15;;;7.80;99.90;;;;;;6062611;23;20041;-84
2022/01/04 06:40:42;;;;;;;55.45;9.27;;;7.80;99.90;;;;;;6015003;23;20125;-82
2022/01/04 06:43:08;;;;;;;47.28;8.27;;;7.80;99.90;;;;;;6038133;23;20041;-82
2022/01/04 06:45:34;;;;;;;38.05;8.80;;;8.30;99.90;;;;;;6123767;23;20563;-88
2022/01/04 06:47:59;;;;;;;39.70;9.13;;;8.60;99.90;;;;;;6155873;23;20013;-84
2022/01/04 06:50:25;;;;;;;40.65;8.32;;;8.70;99.90;;;;;;6180398;23;20021;-84
2022/01/04 06:52:51;;;;;;;46.20;7.50;;;8.50;99.90;;;;;;6155123;23;20434;-82
2022/01/04 06:55:16;;;;;;;31.52;7.20;;;7.80;99.90;;;;;;6130741;23;20701;-87
2022/01/04 06:57:43;;;;;;;37.45;6.57;;;7.70;99.90;;;;;;6154855;23;20389;-84
2022/01/04 07:00:10;;;;;;;40.25;6.78;;;7.70;99.90;;;;;;6181627;23;20028;-88
2022/01/04 07:02:35;;;;;;;31.80;6.20;;;7.70;99.90;;;;;;6154158;23;20132;-82
2022/01/04 07:05:02;;;;;;;30.77;6.07;;;8.00;99.90;;;;;;6182050;23;20049;-84
2022/01/04 07:07:28;;;;;;;29.85;6.13;;;8.50;99.90;;;;;;6154862;23;20378;-83
2022/01/04 07:09:53;;;;;;;31.13;6.95;;;7.60;99.90;;;;;;6155496;23;20071;-89
2022/01/04 07:12:19;;;;;;;25.58;6.63;;;8.20;99.90;;;;;;6156299;23;20139;-82
2022/01/04 07:14:45;;;;;;;42.00;8.75;;;8.20;99.90;;;;;;6182830;23;20013;-81
2022/01/04 07:17:10;;;;;;;36.38;8.05;;;8.10;99.90;;;;;;6153568;23;20108;-81
2022/01/04 07:19:37;;;;;;;36.53;8.93;;;7.70;99.90;;;;;;6131161;23;20083;-87
2022/01/04 07:22:04;;;;;;;40.22;8.02;;;8.20;99.90;;;;;;6133815;23;20032;-86
2022/01/04 07:24:29;;;;;;;32.38;7.88;;;7.60;99.90;;;;;;6133422;23;20021;-83
2022/01/04 07:26:55;;;;;;;26.73;7.53;;;7.60;99.90;;;;;;6184985;23;20366;-78
2022/01/04 07:29:21;;;;;;;32.13;7.22;;;7.70;99.90;;;;;;6158275;23;20030;-86
2022/01/04 07:31:46;;;;;;;25.75;5.13;;;7.60;99.90;;;;;;6157357;23;20009;-85
2022/01/04 07:34:12;;;;;;;26.02;5.18;;;8.40;99.90;;;;;;6156930;23;20017;-81
2022/01/04 07:36:39;;;;;;;35.03;5.65;;;7.70;99.90;;;;;;6156801;23;20009;-82
2022/01/04 07:39:05;;;;;;;36.38;6.32;;;7.80;99.90;;;;;;6132413;23;20024;-86
2022/01/04 07:41:31;;;;;;;36.45;7.38;;;8.00;99.90;;;;;;6131757;23;20028;-81
2022/01/04 07:43:57;;;;;;;30.90;6.82;;;7.80;99.90;;;;;;6157108;23;20306;-79
2022/01/04 07:46:25;;;;;;;27.33;7.35;;;7.50;99.90;;;;;;6130466;23;20271;-82
2022/01/04 07:48:51;;;;;;;28.20;5.47;;;7.90;99.90;;;;;;6134405;23;20091;-86
2022/01/04 07:51:18;;;;;;;35.33;6.78;;;8.40;99.90;;;;;;6157206;23;20016;-81
2022/01/04 07:53:43;;;;;;;29.15;6.05;;;8.10;99.90;;;;;;6157416;23;20021;-80
2022/01/04 07:56:09;;;;;;;40.47;7.32;;;7.60;99.90;;;;;;6131536;23;20031;-82
2022/01/04 07:58:35;;;;;;;27.50;6.05;;;7.60;99.90;;;;;;6157679;23;20384;-81
2022/01/04 08:01:00;;;;;;;30.15;6.53;;;7.60;99.90;;;;;;6131213;23;20017;-83
2022/01/04 08:03:28;;;;;;;26.33;6.20;;;7.60;99.90;;;;;;6158480;23;20016;-82
2022/01/04 08:05:54;;;;;;;26.33;5.47;;;7.60;99.90;;;;;;6184133;23;20009;-81
2022/01/04 08:08:20;;;;;;;31.35;5.70;;;7.60;99.90;;;;;;6157098;23;20052;-77
2022/01/04 08:10:47;;;;;;;26.52;5.43;;;7.50;99.90;;;;;;6130881;23;20017;-82
2022/01/04 08:13:13;;;;;;;28.58;5.05;;;7.50;99.90;;;;;;6153807;23;20021;-79
2022/01/04 08:15:39;;;;;;;32.10;5.10;;;7.60;99.90;;;;;;6156167;23;20017;-81
2022/01/04 08:18:06;;;;;;;36.20;5.55;;;7.50;99.90;;;;;;6156609;23;20057;-82
2022/01/04 08:20:32;;;;;;;27.88;5.05;;;7.50;99.90;;;;;;6127935;23;20485;-80
2022/01/04 08:22:59;;;;;;;35.53;5.63;;;7.60;99.90;;;;;;6127687;23;20100;-82
2022/01/04 08:25:25;;;;;;;33.42;6.03;;;7.50;99.90;;;;;;6128215;23;20013;-81
2022/01/04 08:27:52;;;;;;;26.48;5.55;;;7.90;99.90;;;;;;6154501;23;20005;-80
2022/01/04 08:30:18;;;;;;;30.13;5.35;;;7.50;99.90;;;;;;6127998;23;20025;-80
2022/01/04 08:32:43;;;;;;;26.40;5.60;;;7.50;99.90;;;;;;6127341;23;20061;-79
2022/01/04 08:35:10;;;;;;;25.95;6.15;;;7.50;99.90;;;;;;6153359;23;20326;-80
2022/01/04 08:37:36;;;;;;;27.55;5.97;;;7.50;99.90;;;;;;6128794;23;20024;-80
2022/01/04 08:40:04;;;;;;;32.03;6.05;;;7.60;99.90;;;;;;6153409;23;20021;-80
2022/01/04 08:42:30;;;;;;;28.40;6.32;;;7.60;99.90;;;;;;6152315;23;20053;-79
2022/01/04 08:44:56;;;;;;;30.65;5.85;;;7.60;99.90;;;;;;6152304;23;20040;-80
2022/01/04 08:47:23;;;;;;;37.75;6.68;;;7.50;99.90;;;;;;6151313;23;20461;-78
2022/01/04 08:49:49;;;;;;;26.73;5.78;;;7.50;99.90;;;;;;6152202;23;20017;-79
2022/01/04 08:52:14;;;;;;;20.13;4.82;;;7.50;99.90;;;;;;6152690;23;20029;-80
2022/01/04 08:54:40;;;;;;;15.32;3.25;;;7.60;99.90;;;;;;6152290;23;20442;-81
2022/01/04 08:57:07;;;;;;;17.15;3.05;;;7.40;99.90;;;;;;6152721;23;20023;-81
2022/01/04 08:59:33;;;;;;;10.55;3.30;;;7.20;99.90;;;;;;6152669;23;20100;-79
2022/01/04 09:01:59;;;;;;;15.57;2.20;;;7.20;99.90;;;;;;6126133;23;20022;-78
2022/01/04 09:04:27;;;;;;;10.32;1.35;;;7.00;99.90;;;;;;6127603;23;20032;-82
2022/01/04 09:06:53;;;;;;;9.13;1.60;;;6.80;99.90;;;;;;6151871;23;20059;-80
2022/01/04 09:09:20;;;;;;;14.05;1.83;;;6.80;99.90;;;;;;6152686;23;20049;-80
2022/01/04 09:11:46;;;;;;;8.23;1.42;;;6.70;99.90;;;;;;6151686;23;20064;-80
2022/01/04 09:14:23;;;;;;;12.52;1.23;;;6.90;99.90;;;;;;6151434;23;20025;-77
2022/01/04 09:19:35;;;;;;;8.15;0.90;;;6.60;99.90;;;;;;6173122;23;20112;-83
2022/01/04 09:22:02;;;;;;;9.63;1.13;;;7.00;99.90;;;;;;6132034;23;20055;-82
2022/01/04 09:24:28;;;;;;;6.03;0.80;;;6.50;99.90;;;;;;6159441;23;20017;-82
2022/01/04 09:26:55;;;;;;;10.65;1.02;;;6.50;99.90;;;;;;6157130;23;20013;-85
2022/01/04 09:29:21;;;;;;;9.13;1.00;;;6.50;99.90;;;;;;6156384;23;20291;-83
2022/01/04 09:31:49;;;;;;;9.88;1.20;;;7.40;99.90;;;;;;6182378;23;20020;-82
2022/01/04 09:34:15;;;;;;;9.77;1.38;;;6.60;99.90;;;;;;6130700;23;20013;-83
2022/01/04 09:36:41;;;;;;;9.55;1.17;;;6.90;99.90;;;;;;6155659;23;20023;-81
2022/01/04 09:39:10;;;;;;;11.23;1.05;;;6.50;99.90;;;;;;6131526;23;20099;-80
2022/01/04 09:41:36;;;;;;;5.88;0.98;;;7.30;99.90;;;;;;6155574;23;20021;-83
2022/01/04 09:44:02;;;;;;;13.18;1.73;;;7.00;99.90;;;;;;6155742;23;20319;-84
2022/01/04 09:46:29;;;;;;;9.90;1.75;;;6.50;99.90;;;;;;6130729;23;20013;-85
2022/01/04 09:48:55;;;;;;;9.80;1.58;;;6.30;99.90;;;;;;6131145;23;20015;-80
2022/01/04 09:51:22;;;;;;;8.77;1.48;;;6.50;99.90;;;;;;6131212;23;20025;-81
2022/01/04 09:53:49;;;;;;;8.40;1.55;;;6.40;99.90;;;;;;6157405;23;20023;-82
2022/01/04 09:56:15;;;;;;;7.32;1.25;;;6.30;99.90;;;;;;6132017;23;20318;-81
2022/01/04 09:58:41;;;;;;;7.80;1.17;;;6.40;99.90;;;;;;6132686;23;20099;-79
2022/01/04 10:01:17;;;;;;;9.23;1.48;;;6.40;99.90;;;;;;6156085;23;20044;-81
2022/01/04 10:03:45;;;;;;;6.22;0.90;;;6.30;99.90;;;;;;6132025;23;20386;-82
2022/01/04 10:06:17;;;;;;;9.32;1.90;;;6.20;99.90;;;;;;6156494;23;20392;-79
2022/01/04 10:09:04;;;;;;;6.15;1.42;;;6.10;99.90;;;;;;6131391;23;20013;-80
2022/01/04 10:11:42;;;;;;;5.32;1.10;;;6.00;99.90;;;;;;6131794;23;20837;-78
2022/01/04 10:14:27;;;;;;;4.78;0.70;;;5.80;99.90;;;;;;6156696;23;20128;-79
2022/01/04 10:16:55;;;;;;;5.90;0.90;;;5.80;99.90;;;;;;6130496;23;20124;-81
2022/01/04 10:19:33;;;;;;;11.10;1.80;;;5.60;99.90;;;;;;6132399;23;20021;-84
2022/01/04 10:22:25;;;;;;;6.03;1.55;;;5.60;99.90;;;;;;6131705;23;20480;-81
2022/01/04 10:25:10;;;;;;;11.57;2.03;;;5.60;99.90;;;;;;6038300;23;20097;-79
2022/01/04 10:27:38;;;;;;;7.00;1.15;;;5.60;99.90;;;;;;6040167;23;20070;-82
2022/01/04 10:30:27;;;;;;;5.50;0.75;;;5.50;99.90;;;;;;6038818;23;20018;-80
2022/01/04 10:32:54;;;;;;;5.22;1.00;;;5.50;99.90;;;;;;6014348;23;20021;-80
2022/01/04 10:35:43;;;;;;;9.27;1.52;;;6.10;99.90;;;;;;6015936;23;20074;-81
2022/01/04 10:38:26;;;;;;;6.38;1.35;;;5.60;99.90;;;;;;6015263;23;20018;-82
2022/01/04 10:41:07;;;;;;;6.90;1.40;;;5.60;99.90;;;;;;6015664;23;20093;-80
2022/01/04 10:43:48;;;;;;;4.55;0.80;;;5.60;99.90;;;;;;6062728;23;20027;-80
2022/01/04 10:46:19;;;;;;;8.13;0.70;;;5.60;99.90;;;;;;6013731;23;20094;-81
2022/01/04 10:48:47;;;;;;;5.75;0.80;;;5.60;99.90;;;;;;6038943;23;20369;-79
2022/01/04 10:51:23;;;;;;;7.55;1.00;;;5.60;99.90;;;;;;6037441;23;20021;-78
2022/01/04 10:53:56;;;;;;;4.70;0.60;;;5.60;99.90;;;;;;6037725;23;20026;-79
2022/01/04 10:56:34;;;;;;;4.65;0.70;;;5.70;99.90;;;;;;6036363;23;20019;-82
2022/01/04 10:59:04;;;;;;;3.10;0.57;;;5.60;99.90;;;;;;6063304;23;20128;-82
2022/01/04 11:01:45;;;;;;;3.42;0.47;;;5.70;99.90;;;;;;6080223;23;20048;-81
2022/01/04 11:04:17;;;;;;;5.10;0.65;;;5.40;99.90;;;;;;6156393;23;20083;-84
2022/01/04 11:06:43;;;;;;;5.45;0.55;;;5.50;99.90;;;;;;6155048;23;20090;-82
2022/01/04 11:09:10;;;;;;;4.75;0.93;;;6.10;99.90;;;;;;6130833;23;20009;-82
2022/01/04 11:11:36;;;;;;;5.53;0.60;;;6.00;99.90;;;;;;6155981;23;20332;-82
2022/01/04 11:14:03;;;;;;;11.15;1.05;;;5.40;99.90;;;;;;6155891;23;20013;-77
2022/01/04 11:16:32;;;;;;;4.93;1.23;;;5.50;99.90;;;;;;6129126;23;20453;-86
2022/01/04 11:18:59;;;;;;;6.15;1.00;;;5.40;99.90;;;;;;6182705;23;20306;-82
2022/01/04 11:21:34;;;;;;;4.63;1.38;;;5.40;99.90;;;;;;6120959;23;20033;-80
2022/01/04 11:24:03;;;;;;;9.48;1.13;;;5.20;99.90;;;;;;6096722;23;20460;-79
2022/01/04 11:26:29;;;;;;;8.75;0.85;;;5.20;99.90;;;;;;6124007;23;20096;-82
2022/01/04 11:28:55;;;;;;;7.30;1.00;;;5.20;99.90;;;;;;6120961;23;20013;-80
2022/01/04 11:31:41;;;;;;;7.72;0.88;;;5.20;99.90;;;;;;6095940;23;20014;-80
2022/01/04 11:34:09;;;;;;;10.05;0.85;;;5.20;99.90;;;;;;6120581;23;20022;-79
2022/01/04 11:36:39;;;;;;;13.13;1.15;;;5.40;99.90;;;;;;6119812;23;20029;-80
2022/01/04 11:39:33;;;;;;;5.82;0.70;;;5.30;99.90;;;;;;6096206;23;20099;-81
2022/01/04 11:42:13;;;;;;;9.40;0.90;;;5.40;99.90;;;;;;6095669;23;20018;-84
2022/01/04 11:44:51;;;;;;;3.10;0.45;;;5.40;99.90;;;;;;6095673;23;20041;-81
2022/01/04 11:47:26;;;;;;;8.85;1.13;;;5.40;99.90;;;;;;6092908;23;20319;-80
2022/01/04 11:50:10;;;;;;;3.55;1.17;;;5.40;99.90;;;;;;6096153;23;20014;-80
2022/01/04 11:52:37;;;;;;;10.68;0.80;;;5.50;99.90;;;;;;6096053;23;20050;-80
2022/01/04 11:55:21;;;;;;;6.95;0.95;;;5.40;99.90;;;;;;6095967;23;20018;-80
2022/01/04 11:57:49;;;;;;;5.43;0.88;;;5.60;99.90;;;;;;6121712;23;20118;-81
2022/01/04 12:00:33;;;;;;;6.35;1.08;;;5.90;99.90;;;;;;6098025;23;20018;-80
2022/01/04 12:03:18;;;;;;;6.22;0.80;;;5.60;99.90;;;;;;6097135;23;20078;-80
2022/01/04 12:06:15;;;;;;;7.75;1.02;;;5.70;99.90;;;;;;6120681;23;20080;-80
2022/01/04 12:08:55;;;;;;;7.90;1.10;;;5.70;99.90;;;;;;5988578;23;20150;-82
2022/01/04 12:11:25;;;;;;;4.18;0.80;;;5.70;99.90;;;;;;5986357;23;20019;-80
2022/01/04 12:13:54;;;;;;;10.38;1.00;;;5.80;99.90;;;;;;5988578;23;20019;-82
2022/01/04 12:16:36;;;;;;;8.48;1.10;;;5.90;99.90;;;;;;6010241;23;20025;-83
2022/01/04 12:19:07;;;;;;;12.52;1.40;;;5.90;99.90;;;;;;6010998;23;20023;-81
2022/01/04 12:22:38;;;;;;;9.82;1.40;;;5.90;99.90;;;;;;5982885;23;20027;-81
2022/01/04 12:25:45;;;;;;;11.50;1.58;;;6.00;99.90;;;;;;5983284;23;20020;-81
2022/01/04 12:32:20;;;;;;;11.43;1.30;;;5.60;99.90;;;;;;5949374;24;20015;-82
2022/01/04 12:35:16;;;;;;;9.02;1.42;;;5.80;99.90;;;;;;5926825;24;20343;-83
2022/01/04 12:41:31;;;;;;;9.35;1.30;;;6.00;99.90;;;;;;5893204;24;20147;-83
2022/01/04 12:43:58;;;;;;;8.63;1.38;;;5.40;99.90;;;;;;5874486;24;20025;-82
2022/01/04 12:46:34;;;;;;;8.63;1.45;;;5.70;99.90;;;;;;5926153;24;20020;-83
2022/01/04 12:49:14;;;;;;;8.80;1.40;;;5.70;99.90;;;;;;5904471;24;20108;-81
2022/01/04 12:52:17;;;;;;;9.77;1.30;;;5.70;99.90;;;;;;5927249;24;20077;-81
2022/01/04 12:54:54;;;;;;;5.95;1.17;;;5.80;99.90;;;;;;5927230;24;20032;-83
2022/01/04 12:57:43;;;;;;;11.05;1.52;;;5.80;99.90;;;;;;5904245;24;20101;-83
2022/01/04 13:00:27;;;;;;;13.88;1.55;;;5.90;99.90;;;;;;5905302;24;20021;-83
2022/01/04 13:03:32;;;;;;;12.35;1.60;;;5.90;99.90;;;;;;5904082;24;20016;-83
2022/01/04 13:06:39;;;;;;;9.30;2.15;;;6.00;99.90;;;;;;6007402;23;20074;-83
2022/01/04 13:09:24;;;;;;;12.65;1.67;;;6.00;99.90;;;;;;5996189;23;20106;-83
2022/01/04 13:12:24;;;;;;;9.27;1.30;;;5.40;99.90;;;;;;6005613;23;20024;-85
2022/01/04 13:19:26;;;;;;;10.50;1.77;;;5.50;99.90;;;;;;5923674;24;20469;-80